Airfield :
LOGIN :

Register | Disclaimer

   EN    FR    IT 

 










Legend :    VFR   Marginal VFR   IFR   Intensive IFR   Very Intensive IFR
Visi :
Ceiling :
>= 8 km
>= 3000ft
5 to 8 km
1000 to 3000 ft
1500m to 5 km
500 to 1000 ft
800 to 1500m
200 to 500 ft
< 800m
< 200 ft
Symbols :   Thunderstorms  Fog  Heavy snow  Heavy precipitations  Wind > 20 kt
SIGMETs :     Misc.  Thunderstorms  Icing  Turbulence  Mountain Waves  Volcanic Ashes







- Airport Elevation : 600 ft
- IATA code : VIE


LOWW - Vienna Schwechat

CURRENT METAR :
  • 181550Z 17018KT CAVOK 05/M02 Q1002 NOSIG

EXPIRED METARs :
  • 181520Z 16014KT 9999 FEW030 SCT070 BKN200 04/M01 Q1002 NOSIG
  • 181450Z 17016KT 9999 FEW050 BKN180 04/M01 Q1002 NOSIG
  • 181420Z 17016KT 9999 FEW030 BKN170 04/M01 Q1003 NOSIG
  • 181350Z 18016KT 9999 FEW030 SCT080 BKN170 05/M00 Q1004 NOSIG
  • 181320Z 18016KT 9999 FEW030 SCT048 BKN080 05/M01 Q1004 NOSIG
  • 181250Z 16016KT 9999 -RA FEW030 BKN048 04/M01 Q1005 NOSIG

TAF AMD TAF LOWW
Valid from the 18 at 15:00 until the 19 at 18:00 UTC


181552Z 1815/1918 17012KT 9999 FEW030 SCT050 BKN080 TX09/1820Z TN04/1918Z
TEMPO 1815/1817 18015KT
BECMG 1819/1821 27013KT -RA FEW040 BKN050
TEMPO 1821/1901 30020G35KT
BECMG 1907/1910 CAVOK
TEMPO 1909/1917 30022G32KT
No reported NOTAMs for that airfield.
2 SIGMETs reported for the Wien FIR (LOVV) :
 
Severe turbulence
LOVV SIGMET 3 VALID 181300/181600 LOWW
LOVV WIEN FIR SEV TURB FCST NW OF LINE N4900 E01600 - N4745 E01250 SFC/6000FT STNR INTSF=
Severe turbulence
LOVV SIGMET 2 VALID 181200/181600 LOWW
LOVV WIEN FIR SEV TURB FCST WI N4745 E00935 - N4745 E01400 - N4715 E01310 - N4715 E00935 - N4745 E00935 3000FT/FL130 STNR NC=



MET'MAP, your aeronautical weather chart ! - Copyright ORBIFLY December 2007 - Disclaimer

ORBIFLY MET'MAP TEAM :

Programming & Development : Alexandra Zaïnal
Concept & Development : Baudouin d'Aumeries
Co-Development & Prog : Marc-Olivier Méhu
Technical & hardware support : Manuel Goepfert

Contact : metmap@orbifly.com




SOURCES & CREDITS :

   NOAA